Terminal Aerodrome Forecast
Issued by NWS

Home | Current Version | Previous Version | Text Only | Print | Product List | Glossary On
Versions: 1 2 3 4 5 6 7 8 9 10 11 12
493
FTUS42 TJSJ 242339
TAFNCM
TAF
TNCM 242339Z 2500/2524 09010KT P6SM FEW018
     FM251300 10012KT P6SM SCT025
     FM252200 09010KT P6SM FEW020=

USA.gov is the U.S. government's official web portal to all federal, state and local government web resources and services.